Time;durP1;ratioP1;P1;durP2;ratioP2;P2;SDS_P1;SDS_P2;PMS_P1;PMS_P2;Temp;Humidity;BMP_temperature;BMP_pressure;BME280_temperature;BME280_humidity;BME280_pressure;Samples;Min_cycle;Max_cycle;Signal;HPM_P1;HPM_P2
2022/08/16 00:00:43;;;;;;;2.97;2.63;;;19.70;99.90;;;;;;5051137;28;20217;-58
2022/08/16 00:03:09;;;;;;;4.00;3.10;;;19.70;99.90;;;;;;5051164;28;20181;-58
2022/08/16 00:05:36;;;;;;;3.78;2.92;;;19.80;99.90;;;;;;5051187;28;20217;-58
2022/08/16 00:08:02;;;;;;;3.42;2.70;;;19.80;99.90;;;;;;5051179;28;20288;-58
2022/08/16 00:10:32;;;;;;;3.33;2.85;;;19.80;99.90;;;;;;5051234;28;20252;-58
2022/08/16 00:12:59;;;;;;;4.25;2.90;;;19.70;99.90;;;;;;5051524;28;20197;-57
2022/08/16 00:15:35;;;;;;;2.92;2.63;;;19.70;99.90;;;;;;5051163;28;20226;-58
2022/08/16 00:18:00;;;;;;;7.10;2.88;;;19.80;99.90;;;;;;5049007;28;20185;-58
2022/08/16 00:20:26;;;;;;;3.22;2.92;;;19.80;99.90;;;;;;5051182;28;20238;-58
2022/08/16 00:22:52;;;;;;;3.13;2.80;;;19.80;99.90;;;;;;5051135;28;20213;-58
2022/08/16 00:25:20;;;;;;;5.07;2.80;;;19.90;99.90;;;;;;5051063;28;20227;-58
2022/08/16 00:27:45;;;;;;;3.15;2.40;;;19.90;99.90;;;;;;5051044;28;20177;-58
2022/08/16 00:30:13;;;;;;;3.75;2.90;;;19.90;99.90;;;;;;5051267;28;20243;-58
2022/08/16 00:32:42;;;;;;;5.38;3.03;;;19.90;99.90;;;;;;5050986;28;20597;-58
2022/08/16 00:35:11;;;;;;;4.70;2.70;;;20.00;99.90;;;;;;5050999;28;20197;-58
2022/08/16 00:37:37;;;;;;;3.05;2.30;;;20.00;99.90;;;;;;5051022;28;20181;-58
2022/08/16 00:40:05;;;;;;;4.30;3.03;;;20.00;99.90;;;;;;5050933;28;20521;-58
2022/08/16 00:42:31;;;;;;;3.20;2.88;;;20.00;99.90;;;;;;5051258;28;20177;-58
2022/08/16 00:45:06;;;;;;;2.65;2.30;;;20.00;99.90;;;;;;5050762;28;20205;-58
2022/08/16 00:47:34;;;;;;;3.70;2.55;;;20.00;99.90;;;;;;5051147;28;20192;-58
2022/08/16 00:49:59;;;;;;;3.10;2.80;;;20.00;99.90;;;;;;5050687;28;20182;-58
2022/08/16 00:52:25;;;;;;;2.75;2.55;;;20.10;99.90;;;;;;5050927;28;20189;-58
2022/08/16 00:54:50;;;;;;;4.47;2.70;;;20.10;99.90;;;;;;5051234;28;20189;-58
2022/08/16 00:57:16;;;;;;;5.93;2.90;;;20.00;99.90;;;;;;5050961;28;20699;-58
2022/08/16 00:59:41;;;;;;;4.47;3.00;;;20.00;99.90;;;;;;5050366;28;20669;-58
2022/08/16 01:02:09;;;;;;;2.95;2.55;;;20.00;99.90;;;;;;5050134;28;20225;-58
2022/08/16 01:04:35;;;;;;;3.10;2.88;;;20.00;99.90;;;;;;5051093;28;20201;-58
2022/08/16 01:07:03;;;;;;;3.83;3.45;;;20.00;99.90;;;;;;5050563;28;20189;-58
2022/08/16 01:09:36;;;;;;;4.88;3.08;;;19.90;99.90;;;;;;5050774;28;20245;-58
2022/08/16 01:12:04;;;;;;;4.05;3.25;;;19.90;99.90;;;;;;5050479;28;20189;-58
2022/08/16 01:14:36;;;;;;;2.90;2.70;;;19.80;99.90;;;;;;5050974;28;20177;-58
2022/08/16 01:17:03;;;;;;;3.38;3.08;;;19.70;99.90;;;;;;5051552;28;20196;-58
2022/08/16 01:19:40;;;;;;;5.63;2.92;;;19.70;99.90;;;;;;5055071;28;20179;-58
2022/08/16 01:22:24;;;;;;;4.60;2.97;;;19.70;99.90;;;;;;5054596;28;20231;-58
2022/08/16 01:24:54;;;;;;;5.25;3.70;;;19.70;99.90;;;;;;5054504;28;20215;-58
2022/08/16 01:27:24;;;;;;;3.90;2.90;;;19.70;99.90;;;;;;5053859;28;20184;-58
2022/08/16 01:30:01;;;;;;;5.45;2.60;;;19.70;99.90;;;;;;5054585;28;20181;-58
2022/08/16 01:32:28;;;;;;;3.20;2.55;;;19.60;99.90;;;;;;5054948;28;20255;-58
2022/08/16 01:34:54;;;;;;;4.03;2.70;;;19.60;99.90;;;;;;5054739;28;20682;-58
2022/08/16 01:37:20;;;;;;;5.03;2.63;;;19.60;99.90;;;;;;5054539;28;20272;-58
2022/08/16 01:39:45;;;;;;;4.00;2.70;;;19.50;99.90;;;;;;5042303;28;20256;-58
2022/08/16 01:42:11;;;;;;;4.47;2.85;;;19.40;99.90;;;;;;5054437;28;20182;-58
2022/08/16 01:44:37;;;;;;;6.40;2.80;;;19.40;99.90;;;;;;5054023;28;20198;-58
2022/08/16 01:47:03;;;;;;;3.10;2.70;;;19.50;99.90;;;;;;5054204;28;20193;-58
2022/08/16 01:49:39;;;;;;;4.00;3.38;;;19.40;99.90;;;;;;5054306;28;20169;-58
2022/08/16 01:52:10;;;;;;;3.22;2.95;;;19.30;99.90;;;;;;5053928;28;20177;-58
2022/08/16 01:54:35;;;;;;;3.20;2.90;;;19.20;99.90;;;;;;5053889;28;20181;-58
2022/08/16 01:57:02;;;;;;;4.15;3.05;;;19.20;99.90;;;;;;5054132;28;20177;-58
2022/08/16 01:59:28;;;;;;;3.63;2.80;;;19.20;99.90;;;;;;5054336;28;20193;-58
2022/08/16 02:01:54;;;;;;;3.47;3.08;;;19.10;99.90;;;;;;5053450;28;20246;-57
2022/08/16 02:04:23;;;;;;;3.83;2.78;;;19.10;99.90;;;;;;5053604;28;20185;-58
2022/08/16 02:06:50;;;;;;;3.38;3.08;;;19.00;99.90;;;;;;5053610;28;20579;-58
2022/08/16 02:09:17;;;;;;;3.53;3.10;;;19.00;99.90;;;;;;5053684;28;20632;-58
2022/08/16 02:11:45;;;;;;;4.32;3.10;;;18.90;99.90;;;;;;5053249;28;20220;-57
2022/08/16 02:14:11;;;;;;;3.67;2.97;;;18.90;99.90;;;;;;5046581;28;20256;-57
2022/08/16 02:16:38;;;;;;;3.65;3.35;;;18.90;99.90;;;;;;5052994;28;20663;-58
2022/08/16 02:19:04;;;;;;;4.40;3.42;;;18.80;99.90;;;;;;5053546;28;20192;-58
2022/08/16 02:21:30;;;;;;;3.45;3.15;;;18.80;99.90;;;;;;5053676;28;20189;-58
2022/08/16 02:23:56;;;;;;;4.28;3.10;;;18.70;99.90;;;;;;5053721;28;20181;-58
2022/08/16 02:26:21;;;;;;;5.30;3.35;;;18.70;99.90;;;;;;5053199;28;20641;-58
2022/08/16 02:28:47;;;;;;;3.35;3.05;;;18.60;99.90;;;;;;5048038;28;20249;-58
2022/08/16 02:31:14;;;;;;;3.53;3.20;;;18.50;99.90;;;;;;5049051;28;20182;-58
2022/08/16 02:33:41;;;;;;;3.58;3.17;;;18.50;99.90;;;;;;5053376;28;20644;-58
2022/08/16 02:36:06;;;;;;;3.85;3.20;;;18.50;99.90;;;;;;5053292;28;20193;-58
2022/08/16 02:38:32;;;;;;;4.63;3.80;;;18.40;99.90;;;;;;5051304;28;20541;-58
2022/08/16 02:40:59;;;;;;;3.83;3.53;;;18.40;99.90;;;;;;5053083;28;20597;-58
2022/08/16 02:43:28;;;;;;;3.67;3.30;;;18.30;99.90;;;;;;5052739;28;20186;-58
2022/08/16 02:45:55;;;;;;;5.50;3.20;;;18.30;99.90;;;;;;5051768;28;20220;-58
2022/08/16 02:48:21;;;;;;;6.60;3.70;;;18.30;99.90;;;;;;5052545;28;20174;-58
2022/08/16 02:50:46;;;;;;;4.18;3.60;;;18.30;99.90;;;;;;5052892;28;20178;-58
2022/08/16 02:53:12;;;;;;;3.67;3.38;;;18.30;99.90;;;;;;5053136;28;20234;-58
2022/08/16 02:55:37;;;;;;;3.83;3.42;;;18.30;99.90;;;;;;5052777;28;20193;-58
2022/08/16 02:58:04;;;;;;;5.75;3.50;;;18.20;99.90;;;;;;5052924;28;20197;-58
2022/08/16 03:00:30;;;;;;;4.78;3.42;;;18.20;99.90;;;;;;5052413;28;20295;-58
2022/08/16 03:02:55;;;;;;;4.43;3.97;;;18.20;99.90;;;;;;5052803;28;20614;-58
2022/08/16 03:05:21;;;;;;;3.40;2.95;;;18.20;99.90;;;;;;5052099;28;20213;-58
2022/08/16 03:07:46;;;;;;;4.72;3.50;;;18.10;99.90;;;;;;5052513;28;20180;-58
2022/08/16 03:10:13;;;;;;;3.70;3.30;;;18.10;99.90;;;;;;5052325;28;20278;-58
2022/08/16 03:12:39;;;;;;;4.43;3.42;;;18.10;99.90;;;;;;5052431;28;20190;-58
2022/08/16 03:15:07;;;;;;;3.60;3.33;;;18.10;99.90;;;;;;5050822;28;20200;-58
2022/08/16 03:17:33;;;;;;;4.50;3.88;;;18.10;99.90;;;;;;5052374;28;20181;-58
2022/08/16 03:19:58;;;;;;;6.00;3.85;;;18.00;99.90;;;;;;5051387;28;20181;-58
2022/08/16 03:22:24;;;;;;;5.13;3.40;;;18.00;99.90;;;;;;5052639;28;20264;-58
2022/08/16 03:24:49;;;;;;;6.80;3.30;;;18.00;99.90;;;;;;5052201;28;20201;-58
2022/08/16 03:27:15;;;;;;;4.50;3.80;;;17.90;99.90;;;;;;5051903;28;20197;-58
2022/08/16 03:29:40;;;;;;;3.83;3.53;;;17.80;99.90;;;;;;5052470;28;20189;-58
2022/08/16 03:32:06;;;;;;;3.70;3.40;;;17.80;99.90;;;;;;5052132;28;20232;-58
2022/08/16 03:34:34;;;;;;;4.10;3.70;;;17.80;99.90;;;;;;5038647;28;20173;-58
2022/08/16 03:37:00;;;;;;;5.13;3.92;;;17.80;99.90;;;;;;5051961;28;20189;-58
2022/08/16 03:39:27;;;;;;;4.55;3.45;;;17.80;99.90;;;;;;5050388;28;20535;-58
2022/08/16 03:41:52;;;;;;;4.50;3.78;;;17.70;99.90;;;;;;5052282;28;20188;-58
2022/08/16 03:44:18;;;;;;;4.28;3.33;;;17.70;99.90;;;;;;5051580;28;20186;-58
2022/08/16 03:46:44;;;;;;;3.65;3.35;;;17.70;99.90;;;;;;5051752;28;20174;-58
2022/08/16 03:49:10;;;;;;;3.95;3.60;;;17.70;99.90;;;;;;5051600;28;20571;-58
2022/08/16 03:51:40;;;;;;;4.18;3.78;;;17.70;99.90;;;;;;5051496;28;20264;-58
2022/08/16 03:54:06;;;;;;;3.88;3.47;;;17.70;99.90;;;;;;5051763;28;20189;-58
2022/08/16 03:56:32;;;;;;;4.22;3.67;;;17.60;99.90;;;;;;5051545;28;20661;-58
2022/08/16 03:58:58;;;;;;;4.47;3.63;;;17.60;99.90;;;;;;5051693;28;20272;-58
2022/08/16 04:01:25;;;;;;;4.85;3.70;;;17.60;99.90;;;;;;5051690;28;20225;-58
2022/08/16 04:03:51;;;;;;;4.38;3.65;;;17.50;99.90;;;;;;5051608;28;20196;-58
2022/08/16 04:06:17;;;;;;;3.92;3.60;;;17.60;99.90;;;;;;5050469;28;20301;-59
2022/08/16 04:08:42;;;;;;;3.78;3.38;;;17.60;99.90;;;;;;5051679;28;20276;-58
2022/08/16 04:11:08;;;;;;;4.93;3.90;;;17.50;99.90;;;;;;5051611;28;20239;-58
2022/08/16 04:13:34;;;;;;;4.05;3.63;;;17.60;99.90;;;;;;5050785;28;20185;-59
2022/08/16 04:16:01;;;;;;;4.53;3.72;;;17.60;99.90;;;;;;5051463;28;20193;-57
2022/08/16 04:18:27;;;;;;;6.28;3.50;;;17.60;99.90;;;;;;5051084;28;20588;-58
2022/08/16 04:20:53;;;;;;;4.53;3.25;;;17.60;99.90;;;;;;5051436;28;20267;-59
2022/08/16 04:23:19;;;;;;;4.57;3.40;;;17.60;99.90;;;;;;5051491;28;20295;-60
2022/08/16 04:25:45;;;;;;;3.97;3.58;;;17.60;99.90;;;;;;5050525;28;20231;-57
2022/08/16 04:28:12;;;;;;;4.32;3.40;;;17.60;99.90;;;;;;5051493;28;20205;-60
2022/08/16 04:30:38;;;;;;;3.95;3.30;;;17.50;99.90;;;;;;5051760;28;20181;-57
2022/08/16 04:33:05;;;;;;;3.65;3.33;;;17.50;99.90;;;;;;5051737;28;20178;-60
2022/08/16 04:35:31;;;;;;;4.78;3.40;;;17.50;99.90;;;;;;5051607;28;20177;-59
2022/08/16 04:37:57;;;;;;;4.38;3.20;;;17.50;99.90;;;;;;5049919;28;20173;-60
2022/08/16 04:40:24;;;;;;;5.10;3.72;;;17.60;99.90;;;;;;5034494;28;20165;-59
2022/08/16 04:42:50;;;;;;;4.13;3.70;;;17.60;99.90;;;;;;5051510;28;20192;-60
2022/08/16 04:45:16;;;;;;;3.55;3.17;;;17.60;99.90;;;;;;5051368;28;20205;-59
2022/08/16 04:47:43;;;;;;;5.22;3.40;;;17.70;99.90;;;;;;5051664;28;20637;-59
2022/08/16 04:50:10;;;;;;;4.70;4.05;;;17.70;99.90;;;;;;5051054;28;20545;-61
2022/08/16 04:52:36;;;;;;;4.60;3.78;;;17.80;99.90;;;;;;5051156;28;20280;-60
2022/08/16 04:55:05;;;;;;;3.88;3.15;;;17.90;99.90;;;;;;5051388;28;20212;-61
2022/08/16 04:57:31;;;;;;;6.85;3.20;;;18.00;99.90;;;;;;5051672;28;20178;-61
2022/08/16 04:59:56;;;;;;;4.90;3.30;;;18.00;99.90;;;;;;5051314;28;20185;-61
2022/08/16 05:02:22;;;;;;;4.47;3.38;;;18.20;99.90;;;;;;5051572;28;20659;-61
2022/08/16 05:04:47;;;;;;;4.03;3.38;;;18.30;99.90;;;;;;5051498;28;20223;-61
2022/08/16 05:07:13;;;;;;;4.97;3.42;;;18.30;99.90;;;;;;5051651;28;20640;-60
2022/08/16 05:09:38;;;;;;;3.20;2.90;;;18.40;99.90;;;;;;5050284;28;20173;-60
2022/08/16 05:12:04;;;;;;;4.03;3.03;;;18.60;99.90;;;;;;5050286;28;20169;-61
2022/08/16 05:14:29;;;;;;;3.78;3.08;;;18.70;99.90;;;;;;5051614;28;20179;-61
2022/08/16 05:16:55;;;;;;;3.47;3.10;;;18.80;99.90;;;;;;5051364;28;20216;-61
2022/08/16 05:19:20;;;;;;;3.67;3.30;;;18.90;99.90;;;;;;5051443;28;20645;-61
2022/08/16 05:21:46;;;;;;;4.13;3.28;;;19.00;99.90;;;;;;5051531;28;20644;-60
2022/08/16 05:24:11;;;;;;;3.28;2.92;;;19.20;99.90;;;;;;5051430;28;20188;-60
2022/08/16 05:26:37;;;;;;;4.00;2.83;;;19.40;99.90;;;;;;5051187;28;20292;-60
2022/08/16 05:29:04;;;;;;;3.90;2.92;;;19.70;99.90;;;;;;5051288;28;20252;-61
2022/08/16 05:31:31;;;;;;;3.33;3.00;;;19.90;99.90;;;;;;5051358;28;20185;-61
2022/08/16 05:33:58;;;;;;;5.55;3.08;;;20.00;99.90;;;;;;5051164;28;20248;-61
2022/08/16 05:36:24;;;;;;;6.18;3.15;;;20.10;99.90;;;;;;5051269;28;20197;-61
2022/08/16 05:38:49;;;;;;;4.18;3.30;;;20.20;99.90;;;;;;5049888;28;20181;-61
2022/08/16 05:41:15;;;;;;;5.05;3.80;;;20.30;99.90;;;;;;5051161;28;20173;-61
2022/08/16 05:43:41;;;;;;;3.25;2.92;;;20.40;99.90;;;;;;5051057;28;20178;-61
2022/08/16 05:46:06;;;;;;;3.80;3.10;;;20.40;99.90;;;;;;5050911;28;20248;-61
2022/08/16 05:48:32;;;;;;;4.00;2.85;;;20.30;99.90;;;;;;5051162;28;20213;-61
2022/08/16 05:50:57;;;;;;;3.58;3.28;;;20.40;99.90;;;;;;5051018;28;20251;-61
2022/08/16 05:53:23;;;;;;;5.28;3.72;;;20.40;99.90;;;;;;5051158;28;20169;-61
2022/08/16 05:55:49;;;;;;;6.15;3.38;;;20.40;99.90;;;;;;5051071;28;20180;-61
2022/08/16 05:58:15;;;;;;;4.13;3.58;;;20.50;99.90;;;;;;5051032;28;20174;-61
2022/08/16 06:00:40;;;;;;;4.30;3.17;;;20.70;99.90;;;;;;5050706;28;20236;-61
2022/08/16 06:03:06;;;;;;;5.10;3.50;;;20.80;99.90;;;;;;5052333;28;20581;-61
2022/08/16 06:05:32;;;;;;;5.57;3.50;;;21.00;99.90;;;;;;5054649;28;20287;-61
2022/08/16 06:07:57;;;;;;;3.83;3.20;;;21.40;99.90;;;;;;5054460;28;20580;-61
2022/08/16 06:10:23;;;;;;;5.25;3.58;;;22.10;99.90;;;;;;5054566;28;20177;-61
2022/08/16 06:12:48;;;;;;;5.15;3.60;;;22.80;99.30;;;;;;5054394;28;20640;-62
2022/08/16 06:15:18;;;;;;;5.20;3.10;;;23.50;98.30;;;;;;5054497;28;20636;-62
2022/08/16 06:17:44;;;;;;;5.90;3.40;;;24.20;96.70;;;;;;5054485;28;20181;-62
2022/08/16 06:20:23;;;;;;;4.20;3.22;;;25.00;95.60;;;;;;5054387;28;20267;-62
2022/08/16 06:22:49;;;;;;;4.13;3.25;;;25.80;94.10;;;;;;5054342;28;20188;-62
2022/08/16 06:25:15;;;;;;;5.15;3.00;;;26.40;92.50;;;;;;5054219;28;20715;-62
2022/08/16 06:27:41;;;;;;;5.93;3.00;;;27.00;91.10;;;;;;5054122;28;20181;-62
2022/08/16 06:30:08;;;;;;;5.63;3.30;;;27.30;89.40;;;;;;5054030;28;20583;-62
2022/08/16 06:32:34;;;;;;;5.63;3.30;;;27.60;87.60;;;;;;5054208;28;20170;-62
2022/08/16 06:34:59;;;;;;;3.60;2.80;;;28.10;85.50;;;;;;5053842;28;20169;-62
2022/08/16 06:37:25;;;;;;;4.95;2.70;;;28.50;82.90;;;;;;5052925;28;20177;-62
2022/08/16 06:39:50;;;;;;;3.10;2.80;;;28.90;80.60;;;;;;5037106;28;20201;-62
2022/08/16 06:42:17;;;;;;;3.45;2.80;;;29.30;78.50;;;;;;5032624;28;20657;-62
2022/08/16 06:44:43;;;;;;;3.47;2.85;;;29.30;76.80;;;;;;5033876;28;20614;-62
2022/08/16 06:47:08;;;;;;;3.10;2.80;;;29.00;76.30;;;;;;5052653;28;20189;-61
2022/08/16 06:49:34;;;;;;;3.67;2.83;;;28.60;76.30;;;;;;5053881;28;20557;-61
2022/08/16 06:51:59;;;;;;;3.13;2.83;;;28.30;77.70;;;;;;5053766;28;20181;-61
2022/08/16 06:54:25;;;;;;;3.25;2.95;;;28.00;78.50;;;;;;5053685;28;20491;-62
2022/08/16 06:56:50;;;;;;;3.88;3.30;;;27.90;78.80;;;;;;5053592;28;20536;-61
2022/08/16 06:59:16;;;;;;;3.58;2.95;;;28.10;79.00;;;;;;5053855;28;20264;-62
2022/08/16 07:01:41;;;;;;;4.53;2.67;;;28.60;78.10;;;;;;5053471;28;20233;-61
2022/08/16 07:04:07;;;;;;;3.47;3.00;;;29.10;76.50;;;;;;5053788;28;20182;-61
2022/08/16 07:06:36;;;;;;;4.05;2.83;;;29.40;74.90;;;;;;5052335;28;20221;-61
2022/08/16 07:09:01;;;;;;;3.55;3.25;;;29.50;72.90;;;;;;5053578;28;20178;-61
2022/08/16 07:11:27;;;;;;;4.00;3.00;;;29.50;72.80;;;;;;5053630;28;20177;-61
2022/08/16 07:13:53;;;;;;;5.13;3.28;;;29.30;73.20;;;;;;5052813;28;20184;-61
2022/08/16 07:16:19;;;;;;;4.40;3.28;;;29.00;73.30;;;;;;5052906;28;20177;-61
2022/08/16 07:18:45;;;;;;;4.00;3.05;;;28.90;73.70;;;;;;5053391;28;20180;-61
2022/08/16 07:21:12;;;;;;;3.25;2.97;;;28.60;73.40;;;;;;5052021;28;20182;-61
2022/08/16 07:23:40;;;;;;;3.67;3.30;;;28.40;74.60;;;;;;5053243;28;20261;-61
2022/08/16 07:26:09;;;;;;;3.38;3.05;;;28.10;74.90;;;;;;5053141;28;20221;-61
2022/08/16 07:28:35;;;;;;;4.25;3.17;;;27.80;75.50;;;;;;5053212;28;20200;-61
2022/08/16 07:31:02;;;;;;;3.70;3.30;;;27.80;76.00;;;;;;5052961;28;20209;-61
2022/08/16 07:33:29;;;;;;;6.28;3.28;;;27.80;76.30;;;;;;5053140;28;20257;-61
2022/08/16 07:35:55;;;;;;;3.90;3.08;;;28.10;76.40;;;;;;5051828;28;20173;-61
2022/08/16 07:38:20;;;;;;;3.60;2.97;;;28.60;76.20;;;;;;5048251;28;20218;-61
2022/08/16 07:40:46;;;;;;;5.05;3.15;;;29.60;74.10;;;;;;5033029;28;20570;-62
2022/08/16 07:43:11;;;;;;;5.55;2.90;;;30.60;70.80;;;;;;5032832;28;20785;-62
2022/08/16 07:45:37;;;;;;;3.78;3.08;;;31.50;68.30;;;;;;5040208;28;20287;-61
2022/08/16 07:48:03;;;;;;;4.47;3.10;;;32.20;65.60;;;;;;5051521;28;20174;-62
2022/08/16 07:50:28;;;;;;;3.38;2.80;;;32.90;62.30;;;;;;5051538;28;20616;-62
2022/08/16 07:52:54;;;;;;;3.72;3.20;;;33.30;61.00;;;;;;5052569;28;20173;-62
2022/08/16 07:55:20;;;;;;;4.47;3.00;;;33.60;60.40;;;;;;5052587;28;20176;-62
2022/08/16 07:57:45;;;;;;;3.70;2.70;;;33.60;58.90;;;;;;5052804;28;20180;-62
2022/08/16 08:00:12;;;;;;;2.70;2.50;;;33.90;58.90;;;;;;5052389;28;20856;-62
2022/08/16 08:02:38;;;;;;;6.40;4.28;;;34.30;57.80;;;;;;5051116;28;20277;-62
2022/08/16 08:05:05;;;;;;;3.50;3.00;;;34.70;56.40;;;;;;5052475;28;20275;-63
2022/08/16 08:07:30;;;;;;;4.68;3.13;;;34.50;54.10;;;;;;5052467;28;20536;-62
2022/08/16 08:09:57;;;;;;;4.22;3.00;;;33.90;56.00;;;;;;5050954;28;20230;-62
2022/08/16 08:12:22;;;;;;;3.25;2.90;;;34.00;55.90;;;;;;5052379;28;20272;-62
2022/08/16 08:14:48;;;;;;;5.35;2.78;;;34.30;55.30;;;;;;5052289;28;20251;-62
2022/08/16 08:17:15;;;;;;;3.67;2.88;;;34.40;54.30;;;;;;5052206;28;20188;-62
2022/08/16 08:19:40;;;;;;;3.60;3.00;;;34.60;54.00;;;;;;5052100;28;20176;-63
2022/08/16 08:22:08;;;;;;;3.17;2.70;;;34.80;53.10;;;;;;5052123;28;20264;-62
2022/08/16 08:24:36;;;;;;;4.70;2.65;;;35.00;53.10;;;;;;5052096;28;20276;-62
2022/08/16 08:27:04;;;;;;;3.35;2.90;;;34.90;52.40;;;;;;5051685;28;20184;-62
2022/08/16 08:29:30;;;;;;;4.78;3.20;;;34.90;52.90;;;;;;5051899;28;20636;-63
2022/08/16 08:31:56;;;;;;;5.35;3.42;;;34.70;52.70;;;;;;5051909;28;20185;-62
2022/08/16 08:34:22;;;;;;;6.18;3.50;;;34.90;52.90;;;;;;5052024;28;20173;-62
2022/08/16 08:36:49;;;;;;;3.42;3.13;;;34.70;52.50;;;;;;5051968;28;20173;-62
2022/08/16 08:39:15;;;;;;;6.25;4.30;;;34.60;52.50;;;;;;5051774;28;20212;-62
2022/08/16 08:41:42;;;;;;;5.93;3.55;;;34.70;52.90;;;;;;5051856;28;20176;-62
2022/08/16 08:44:08;;;;;;;3.00;2.80;;;34.40;52.50;;;;;;5051854;28;20181;-62
2022/08/16 08:46:33;;;;;;;3.55;3.05;;;34.30;53.10;;;;;;5050361;28;20228;-62
2022/08/16 08:48:59;;;;;;;6.13;3.53;;;33.90;52.60;;;;;;5051669;28;20169;-62
2022/08/16 08:51:24;;;;;;;3.55;3.10;;;33.00;53.30;;;;;;5051836;28;20181;-62
2022/08/16 08:53:50;;;;;;;3.97;3.58;;;32.10;54.50;;;;;;5051706;28;20173;-62
2022/08/16 08:56:16;;;;;;;3.90;3.13;;;31.30;56.20;;;;;;5051776;28;20185;-62
2022/08/16 08:58:42;;;;;;;3.58;3.28;;;30.90;57.60;;;;;;5050532;28;20185;-61
2022/08/16 09:01:08;;;;;;;4.32;3.25;;;30.90;58.80;;;;;;5051467;28;20733;-61
2022/08/16 09:03:35;;;;;;;3.75;3.30;;;31.30;58.80;;;;;;5051623;28;20227;-61
2022/08/16 09:06:02;;;;;;;4.97;3.33;;;31.80;57.50;;;;;;5051315;28;20217;-61
2022/08/16 09:08:27;;;;;;;4.95;3.40;;;31.80;56.80;;;;;;5051666;28;20166;-61
2022/08/16 09:10:56;;;;;;;3.30;2.88;;;32.00;57.40;;;;;;5051722;28;20184;-61
2022/08/16 09:13:23;;;;;;;4.25;3.83;;;32.50;57.50;;;;;;5051551;28;20268;-61
2022/08/16 09:15:54;;;;;;;4.20;3.50;;;32.70;54.50;;;;;;5051524;28;20212;-61
2022/08/16 09:18:21;;;;;;;6.30;3.42;;;32.20;55.80;;;;;;5051367;28;20204;-61
2022/08/16 09:20:48;;;;;;;6.00;3.70;;;32.70;56.80;;;;;;5051716;28;20213;-61
2022/08/16 09:23:14;;;;;;;5.00;3.33;;;33.00;54.40;;;;;;5051210;28;20185;-62
2022/08/16 09:25:40;;;;;;;3.65;3.13;;;32.50;54.60;;;;;;5049874;28;20216;-61
2022/08/16 09:28:06;;;;;;;6.65;3.75;;;32.20;54.60;;;;;;5051221;28;20200;-62
2022/08/16 09:30:35;;;;;;;7.47;4.30;;;31.60;54.90;;;;;;5051353;28;20518;-60
2022/08/16 09:33:01;;;;;;;5.05;3.78;;;31.30;56.00;;;;;;5051960;28;20169;-61
2022/08/16 09:35:27;;;;;;;4.85;3.03;;;31.40;57.10;;;;;;5050123;28;20184;-61
2022/08/16 09:37:53;;;;;;;3.80;3.35;;;31.80;57.30;;;;;;5051528;28;20174;-61
2022/08/16 09:40:18;;;;;;;3.65;3.30;;;32.40;56.10;;;;;;5035028;28;20177;-61
2022/08/16 09:42:44;;;;;;;4.28;3.92;;;32.90;55.40;;;;;;5035203;28;20638;-62
2022/08/16 09:45:10;;;;;;;6.28;3.50;;;32.90;54.20;;;;;;5054118;28;20201;-60
2022/08/16 09:47:39;;;;;;;5.47;3.50;;;32.80;53.60;;;;;;5054999;28;20174;-61
2022/08/16 09:50:06;;;;;;;5.85;3.40;;;32.70;53.80;;;;;;5054728;28;20641;-61
2022/08/16 09:52:34;;;;;;;3.58;3.10;;;32.90;53.70;;;;;;5053531;28;20216;-61
2022/08/16 09:55:02;;;;;;;4.25;3.13;;;32.90;52.90;;;;;;5053542;28;20185;-61
2022/08/16 09:57:27;;;;;;;4.40;3.17;;;32.60;53.00;;;;;;5054795;28;20527;-61
2022/08/16 09:59:53;;;;;;;5.20;3.40;;;32.30;53.00;;;;;;5054639;28;20177;-61
2022/08/16 10:02:18;;;;;;;4.25;3.42;;;32.20;53.90;;;;;;5054491;28;20672;-61
2022/08/16 10:04:44;;;;;;;5.45;4.03;;;32.10;54.00;;;;;;5054638;28;20543;-61
2022/08/16 10:07:09;;;;;;;3.72;3.38;;;32.20;54.80;;;;;;5054449;28;20276;-61
2022/08/16 10:09:35;;;;;;;5.22;3.40;;;32.30;54.90;;;;;;5054429;28;20219;-61
2022/08/16 10:14:45;;;;;;;3.50;3.20;;;33.00;53.30;;;;;;5054579;28;20235;-62
2022/08/16 10:17:11;;;;;;;4.28;3.20;;;33.10;53.10;;;;;;5054261;28;20645;-61
2022/08/16 10:19:36;;;;;;;4.82;2.90;;;33.00;52.30;;;;;;5054269;28;20193;-61
2022/08/16 10:22:02;;;;;;;3.60;3.30;;;33.10;52.90;;;;;;5054228;28;20199;-62
2022/08/16 10:24:28;;;;;;;7.72;3.20;;;33.20;52.00;;;;;;5054213;28;20185;-61
2022/08/16 10:26:56;;;;;;;7.00;3.20;;;33.40;51.90;;;;;;5053962;28;20217;-62
2022/08/16 10:29:21;;;;;;;5.97;3.28;;;33.60;52.30;;;;;;5054024;28;20231;-61
2022/08/16 10:31:47;;;;;;;4.50;3.30;;;33.50;51.60;;;;;;5053984;28;20178;-61
2022/08/16 10:34:13;;;;;;;5.18;3.28;;;33.10;51.70;;;;;;5054136;28;20173;-62
2022/08/16 10:36:39;;;;;;;3.50;3.08;;;32.40;52.10;;;;;;5053845;28;20177;-62
2022/08/16 10:39:04;;;;;;;3.53;2.70;;;31.70;53.00;;;;;;5042798;28;20189;-62
2022/08/16 10:41:31;;;;;;;3.67;2.97;;;31.50;54.20;;;;;;5034010;28;20656;-61
2022/08/16 10:43:58;;;;;;;3.75;3.28;;;31.20;54.60;;;;;;5033782;28;20178;-61
2022/08/16 10:46:23;;;;;;;3.42;2.97;;;31.40;54.50;;;;;;5047611;28;20200;-62
2022/08/16 10:48:49;;;;;;;3.92;3.00;;;31.70;54.50;;;;;;5053624;28;20176;-61
2022/08/16 10:51:15;;;;;;;3.38;3.03;;;31.90;54.50;;;;;;5053693;28;20258;-62
2022/08/16 10:53:41;;;;;;;3.20;2.90;;;32.30;54.50;;;;;;5053488;28;20201;-62
2022/08/16 10:56:10;;;;;;;4.45;3.25;;;32.80;53.60;;;;;;5053599;28;20537;-62
2022/08/16 10:58:37;;;;;;;3.35;3.05;;;33.10;52.60;;;;;;5053483;28;20633;-62
2022/08/16 11:01:05;;;;;;;4.35;3.33;;;33.40;53.00;;;;;;5053263;28;20598;-61
2022/08/16 11:03:32;;;;;;;5.05;3.38;;;33.50;51.10;;;;;;5053561;28;20168;-62
2022/08/16 11:05:58;;;;;;;4.50;3.15;;;33.30;51.00;;;;;;5053460;28;20254;-62
2022/08/16 11:08:23;;;;;;;4.28;3.42;;;33.30;51.70;;;;;;5053445;28;20177;-62
2022/08/16 11:10:49;;;;;;;3.97;3.03;;;33.30;51.50;;;;;;5053283;28;20609;-61
2022/08/16 11:13:20;;;;;;;4.78;2.90;;;33.20;51.40;;;;;;5053236;28;20174;-62
2022/08/16 11:15:46;;;;;;;4.82;2.88;;;32.90;51.20;;;;;;5053445;28;20174;-61
2022/08/16 11:18:13;;;;;;;2.97;2.70;;;32.80;51.60;;;;;;5052541;28;20177;-62
2022/08/16 11:20:41;;;;;;;3.45;3.15;;;32.90;50.20;;;;;;5053432;28;20203;-61
2022/08/16 11:23:07;;;;;;;3.63;3.15;;;32.90;50.60;;;;;;5053277;28;20178;-62
2022/08/16 11:25:33;;;;;;;3.17;2.88;;;32.80;50.70;;;;;;5053180;28;20204;-60
2022/08/16 11:28:00;;;;;;;4.85;3.17;;;32.70;51.10;;;;;;5052920;28;20177;-61
2022/08/16 11:30:28;;;;;;;5.65;3.28;;;32.90;51.70;;;;;;5053374;28;20186;-62
2022/08/16 11:32:54;;;;;;;5.65;3.38;;;32.60;51.60;;;;;;5051678;28;20570;-62
2022/08/16 11:35:23;;;;;;;5.10;3.33;;;32.10;52.40;;;;;;5052766;28;20256;-62
2022/08/16 11:37:53;;;;;;;3.97;3.13;;;31.50;52.50;;;;;;5052529;28;20173;-62
2022/08/16 11:40:19;;;;;;;3.15;2.85;;;31.10;53.80;;;;;;5032965;28;20170;-63
2022/08/16 11:42:45;;;;;;;4.05;3.13;;;31.00;54.20;;;;;;5032859;28;20185;-62
2022/08/16 11:45:11;;;;;;;5.68;3.10;;;31.10;54.50;;;;;;5036303;28;20223;-63
2022/08/16 11:47:37;;;;;;;4.68;3.30;;;31.10;54.60;;;;;;5052662;28;20174;-63
2022/08/16 11:50:07;;;;;;;4.30;3.08;;;31.30;55.20;;;;;;5052502;28;20192;-63
2022/08/16 11:52:33;;;;;;;4.25;3.40;;;31.40;54.00;;;;;;5051312;28;20583;-63
2022/08/16 11:54:59;;;;;;;3.20;2.90;;;31.50;53.60;;;;;;5052283;28;20162;-63
2022/08/16 11:57:25;;;;;;;4.28;2.95;;;31.60;53.30;;;;;;5052542;28;20177;-63
2022/08/16 11:59:50;;;;;;;4.68;2.92;;;31.70;52.90;;;;;;5052229;28;20648;-63
2022/08/16 12:02:15;;;;;;;3.97;2.95;;;31.70;52.60;;;;;;5051834;28;20268;-63
2022/08/16 12:04:43;;;;;;;4.35;3.17;;;31.60;52.40;;;;;;5052207;28;20272;-63
2022/08/16 12:07:09;;;;;;;4.72;2.70;;;31.50;52.50;;;;;;5052173;28;20196;-62
2022/08/16 12:09:35;;;;;;;4.80;2.83;;;31.40;52.80;;;;;;5052245;28;20181;-62
2022/08/16 12:12:00;;;;;;;4.03;2.95;;;31.30;52.90;;;;;;5051943;28;20649;-62
2022/08/16 12:14:26;;;;;;;4.43;2.80;;;31.20;52.90;;;;;;5052252;28;20637;-62
2022/08/16 12:16:54;;;;;;;3.05;2.80;;;31.10;53.30;;;;;;5052136;28;20272;-63
2022/08/16 12:19:21;;;;;;;3.33;3.00;;;31.40;53.80;;;;;;5052134;28;20529;-62
2022/08/16 12:21:46;;;;;;;3.58;2.85;;;31.70;53.80;;;;;;5052212;28;20290;-63
2022/08/16 12:24:12;;;;;;;7.28;3.45;;;31.70;53.40;;;;;;5052024;28;20664;-62
2022/08/16 12:26:38;;;;;;;2.92;2.63;;;31.80;52.40;;;;;;5051821;28;20213;-60
2022/08/16 12:29:03;;;;;;;5.00;3.00;;;31.50;52.40;;;;;;5051834;28;20180;-60
2022/08/16 12:31:29;;;;;;;3.30;2.83;;;31.20;52.90;;;;;;5051934;28;20169;-60
2022/08/16 12:33:55;;;;;;;5.40;3.13;;;30.80;53.40;;;;;;5051747;28;20602;-60
2022/08/16 12:36:21;;;;;;;3.40;3.10;;;30.70;53.60;;;;;;5051821;28;20248;-60
2022/08/16 12:38:47;;;;;;;5.53;3.20;;;30.60;54.00;;;;;;5043619;28;20174;-60
2022/08/16 12:41:13;;;;;;;3.58;3.28;;;30.80;54.30;;;;;;5031920;28;20206;-60
2022/08/16 12:43:40;;;;;;;5.65;2.90;;;31.20;53.80;;;;;;5031808;28;20638;-60
2022/08/16 12:46:08;;;;;;;3.33;2.70;;;31.60;53.00;;;;;;5042971;28;20213;-60